Time;durP1;ratioP1;P1;durP2;ratioP2;P2;SDS_P1;SDS_P2;PMS_P1;PMS_P2;Temp;Humidity;BMP_temperature;BMP_pressure;BME280_temperature;BME280_humidity;BME280_pressure;Samples;Min_cycle;Max_cycle;Signal;HPM_P1;HPM_P2
2022/08/08 00:00:04;;;;;;;10.00;8.90;;;;;;;24.17;72.09;94916.44;4954317;29;20493;-86
2022/08/08 00:02:42;;;;;;;10.53;9.50;;;;;;;24.23;72.63;94913.72;4953878;29;20542;-86
2022/08/08 00:05:18;;;;;;;10.17;8.97;;;;;;;24.25;72.16;94918.88;4954197;29;20458;-86
2022/08/08 00:07:51;;;;;;;14.63;9.30;;;;;;;24.18;72.46;94916.22;4954186;29;20493;-86
2022/08/08 00:10:23;;;;;;;9.03;8.10;;;;;;;24.18;72.72;94916.22;4997667;28;20447;-86
2022/08/08 00:12:55;;;;;;;10.50;9.60;;;;;;;24.18;71.93;94915.41;5014498;28;20789;-86
2022/08/08 00:15:27;;;;;;;10.17;9.27;;;;;;;24.18;72.67;94928.81;5014734;28;20443;-86
2022/08/08 00:21:38;;;;;;;11.73;9.60;;;;;;;24.08;71.99;94927.41;5014703;28;20439;-86
2022/08/08 00:24:13;;;;;;;10.70;9.03;;;;;;;24.05;72.91;94927.84;5014078;28;20440;-86
2022/08/08 00:26:45;;;;;;;11.10;10.03;;;;;;;24.05;72.96;94933.19;5014518;28;20451;-86
2022/08/08 00:29:17;;;;;;;9.40;8.50;;;;;;;24.13;72.76;94934.81;5014528;28;20542;-86
2022/08/08 00:31:50;;;;;;;9.67;8.77;;;;;;;24.12;72.12;94927.00;5013850;28;20447;-84
2022/08/08 00:35:14;;;;;;;9.33;8.47;;;;;;;24.17;72.59;94936.03;5014007;28;20415;-86
2022/08/08 00:37:49;;;;;;;9.63;8.73;;;;;;;24.20;72.55;94932.09;4953426;28;20454;-86
2022/08/08 00:40:41;;;;;;;10.87;9.37;;;;;;;24.15;71.94;94931.91;4953205;28;20450;-86
2022/08/08 00:43:45;;;;;;;10.80;9.60;;;;;;;24.02;72.85;94939.00;4953331;28;20801;-86
2022/08/08 00:46:43;;;;;;;10.60;9.60;;;;;;;23.89;73.06;94928.28;4914841;29;20458;-85
2022/08/08 00:49:42;;;;;;;9.90;9.00;;;;;;;23.77;73.46;94930.00;4914993;29;20460;-86
2022/08/08 00:52:38;;;;;;;9.43;8.63;;;;;;;23.84;73.09;94936.16;4855626;29;21107;-85
2022/08/08 00:55:24;;;;;;;11.73;9.37;;;;;;;23.74;73.59;94933.09;4840439;29;20459;-86
2022/08/08 00:58:21;;;;;;;9.77;8.83;;;;;;;23.70;73.79;94934.53;4840179;29;20455;-85
2022/08/08 01:00:57;;;;;;;11.40;10.20;;;;;;;23.68;73.86;94937.41;4768062;30;20545;-84
2022/08/08 01:04:09;;;;;;;10.30;9.40;;;;;;;23.73;73.48;94939.50;4768221;30;20447;-85
2022/08/08 01:07:11;;;;;;;9.47;8.57;;;;;;;23.78;73.07;94942.38;4769374;30;20447;-86
2022/08/08 01:10:23;;;;;;;9.83;8.97;;;;;;;23.86;73.05;94942.13;4736591;30;20464;-85
2022/08/08 01:13:28;;;;;;;11.00;10.00;;;;;;;23.92;73.25;94943.13;4718766;30;21138;-83
2022/08/08 01:16:07;;;;;;;10.80;9.80;;;;;;;23.95;72.63;94942.72;4718614;30;20454;-85
2022/08/08 01:19:07;;;;;;;10.73;9.20;;;;;;;23.91;72.96;94939.63;4718695;30;20501;-85
2022/08/08 01:21:49;;;;;;;10.77;9.67;;;;;;;23.94;72.91;94939.22;4717935;30;20492;-86
2022/08/08 01:25:00;;;;;;;9.67;8.67;;;;;;;24.02;72.75;94947.03;4786854;30;20450;-86
2022/08/08 01:27:57;;;;;;;10.43;9.50;;;;;;;24.03;73.05;94940.63;4752803;30;21053;-85
2022/08/08 01:31:06;;;;;;;12.37;8.77;;;;;;;23.91;72.07;94950.34;4785848;30;20454;-85
2022/08/08 01:33:49;;;;;;;22.83;10.00;;;;;;;23.53;73.59;94960.09;4788225;29;21033;-87
2022/08/08 01:36:47;;;;;;;11.27;10.27;;;;;;;23.60;74.06;94972.47;4787893;30;20482;-85
2022/08/08 01:39:29;;;;;;;11.27;10.03;;;;;;;23.48;74.29;94969.59;4858256;29;20490;-84
2022/08/08 01:42:07;;;;;;;10.67;9.73;;;;;;;23.53;74.82;94973.50;4862058;29;20446;-86
2022/08/08 01:44:59;;;;;;;11.27;10.07;;;;;;;23.54;74.08;94975.13;4862060;29;20803;-84
2022/08/08 01:47:41;;;;;;;12.83;9.53;;;;;;;23.60;74.67;94971.66;4943653;29;20488;-86
2022/08/08 01:50:29;;;;;;;10.93;9.97;;;;;;;23.70;73.94;94974.72;4956357;29;20458;-86
2022/08/08 01:53:02;;;;;;;10.30;9.40;;;;;;;23.69;73.79;94957.00;4956527;28;20812;-85
2022/08/08 01:55:40;;;;;;;11.10;9.70;;;;;;;23.65;73.36;94963.81;4956214;29;20426;-86
2022/08/08 01:58:21;;;;;;;10.23;9.33;;;;;;;23.73;73.77;94955.56;4956104;28;20430;-86
2022/08/08 02:01:02;;;;;;;10.57;9.00;;;;;;;23.73;73.27;94960.94;4955235;29;20485;-85
2022/08/08 02:03:38;;;;;;;10.20;9.30;;;;;;;23.70;73.46;94961.31;4978676;28;20436;-85
2022/08/08 02:06:18;;;;;;;10.40;9.40;;;;;;;23.53;73.41;94970.81;4993608;28;20443;-86
2022/08/08 02:08:57;;;;;;;9.60;8.77;;;;;;;23.46;73.57;94965.47;4961196;28;21023;-85
2022/08/08 02:11:31;;;;;;;14.23;9.50;;;;;;;23.39;73.98;94968.13;4993099;28;20958;-86
2022/08/08 02:14:04;;;;;;;10.63;9.60;;;;;;;23.31;73.78;94963.00;4992176;28;20479;-85
2022/08/08 02:16:40;;;;;;;10.73;9.43;;;;;;;23.22;74.05;94961.56;5005930;28;20452;-85
2022/08/08 02:19:14;;;;;;;11.27;10.20;;;;;;;23.12;74.05;94972.66;5014309;28;20522;-86
2022/08/08 02:24:44;;;;;;;10.70;9.67;;;;;;;23.01;74.80;94972.47;5013917;28;20463;-86
2022/08/08 02:27:18;;;;;;;10.20;9.30;;;;;;;22.97;75.12;94966.69;5014109;28;20525;-86
2022/08/08 02:30:03;;;;;;;11.73;10.33;;;;;;;22.92;75.99;94969.16;5014172;28;20774;-83
2022/08/08 02:33:01;;;;;;;10.20;9.20;;;;;;;22.93;75.40;94967.31;5014954;28;20510;-84
2022/08/08 02:35:41;;;;;;;11.53;9.87;;;;;;;22.94;75.41;94967.09;4974194;28;20464;-86
2022/08/08 02:38:36;;;;;;;9.90;8.90;;;;;;;23.07;75.59;94967.09;4973793;28;20438;-86
2022/08/08 02:41:39;;;;;;;10.40;9.40;;;;;;;23.09;74.88;94972.25;4973800;28;20458;-86
2022/08/08 02:44:29;;;;;;;10.43;9.43;;;;;;;22.93;74.73;94961.97;4973705;28;20421;-85
2022/08/08 02:47:26;;;;;;;11.27;10.27;;;;;;;22.95;75.63;94967.94;4935343;29;20447;-86
2022/08/08 02:50:13;;;;;;;10.00;9.03;;;;;;;22.89;75.04;94960.72;4935374;29;20451;-85
2022/08/08 02:53:13;;;;;;;9.73;8.80;;;;;;;22.88;74.94;94975.13;4935514;29;20626;-86
2022/08/08 03:02:28;;;;;;;13.23;9.73;;;;;;;22.61;76.42;94972.38;5090981;27;20902;-86
2022/08/08 03:05:32;;;;;;;10.83;9.73;;;;;;;22.61;75.80;94972.38;5090978;28;20443;-87
2022/08/08 03:08:36;;;;;;;14.90;11.40;;;;;;;22.58;76.53;94967.44;5075882;28;20448;-87
2022/08/08 03:11:47;;;;;;;14.50;11.60;;;;;;;22.65;76.44;94976.28;5091026;28;20450;-87
2022/08/08 03:14:45;;;;;;;12.20;11.10;;;;;;;22.61;76.60;94980.41;5048594;28;20908;-87
2022/08/08 03:17:18;;;;;;;14.93;11.10;;;;;;;22.59;76.88;94970.94;5048469;28;20440;-87
2022/08/08 03:20:04;;;;;;;11.70;9.67;;;;;;;22.61;76.56;94977.72;5048442;28;20442;-86
2022/08/08 03:22:31;;;;;;;12.03;10.33;;;;;;;22.62;77.03;94973.19;5049001;28;20503;-86
2022/08/08 03:25:00;;;;;;;11.13;9.70;;;;;;;22.58;76.12;94972.78;5048535;28;20441;-86
2022/08/08 03:27:34;;;;;;;12.47;11.27;;;;;;;22.63;76.16;94986.38;5048185;28;20447;-86
2022/08/08 03:30:06;;;;;;;12.97;10.03;;;;;;;22.57;75.92;94981.81;5048974;28;20410;-87
2022/08/08 03:35:18;;;;;;;12.00;10.90;;;;;;;22.62;76.82;94987.41;5048255;28;20409;-86
2022/08/08 03:37:46;;;;;;;11.07;10.07;;;;;;;22.75;76.39;94998.13;5048064;28;20454;-86
2022/08/08 03:40:16;;;;;;;12.23;10.83;;;;;;;22.97;75.48;95000.66;5046906;28;20509;-86
2022/08/08 03:42:43;;;;;;;12.47;10.70;;;;;;;23.01;75.23;95002.72;5048059;28;20438;-86
2022/08/08 03:45:16;;;;;;;12.07;10.70;;;;;;;23.12;75.51;94999.44;5048214;28;20453;-87
2022/08/08 03:47:43;;;;;;;10.97;9.90;;;;;;;23.08;75.05;95000.06;5048237;28;20442;-86
2022/08/08 03:50:16;;;;;;;12.03;10.10;;;;;;;23.19;75.20;95007.50;5047956;28;20422;-86
2022/08/08 03:52:43;;;;;;;11.20;10.10;;;;;;;23.30;75.06;94998.84;5090159;28;20843;-87
2022/08/08 03:55:11;;;;;;;11.97;10.83;;;;;;;23.48;73.22;95007.09;5089947;28;20452;-86
2022/08/08 03:57:45;;;;;;;11.30;10.20;;;;;;;23.66;73.01;95003.78;5089867;28;20466;-86
2022/08/08 04:00:14;;;;;;;11.20;10.20;;;;;;;23.82;71.81;95007.91;5089702;28;20491;-86
2022/08/08 04:02:41;;;;;;;11.40;10.40;;;;;;;23.88;71.60;95009.75;5089783;28;20440;-87
2022/08/08 04:05:09;;;;;;;12.03;9.00;;;;;;;23.93;71.19;95009.13;5089830;28;20969;-86
2022/08/08 04:07:37;;;;;;;11.77;9.77;;;;;;;23.99;71.50;95011.78;5089547;28;20515;-86
2022/08/08 04:10:05;;;;;;;11.43;8.67;;;;;;;24.26;70.65;95012.53;5089195;28;20436;-87
2022/08/08 04:12:32;;;;;;;10.77;9.10;;;;;;;24.60;69.06;95015.97;5077328;28;20491;-88
2022/08/08 04:15:01;;;;;;;14.70;9.93;;;;;;;24.91;67.95;95007.13;5076589;28;20433;-88
2022/08/08 04:17:28;;;;;;;11.73;10.10;;;;;;;25.39;65.85;95014.66;5075878;28;20499;-84
2022/08/08 04:19:56;;;;;;;9.67;8.83;;;;;;;25.75;64.31;95014.00;5040891;28;20457;-87
2022/08/08 04:22:25;;;;;;;10.30;9.40;;;;;;;26.21;63.29;95018.91;5075919;28;20486;-87
2022/08/08 04:27:37;;;;;;;15.90;9.10;;;;;;;26.86;60.27;95024.53;5034005;28;20435;-87
2022/08/08 04:30:07;;;;;;;12.27;9.17;;;;;;;26.93;59.54;95027.19;5034225;28;20465;-87
2022/08/08 04:32:34;;;;;;;8.70;7.90;;;;;;;27.12;59.71;95016.13;5033658;28;20453;-87
2022/08/08 04:35:01;;;;;;;10.93;9.77;;;;;;;27.28;58.82;95025.44;5033885;28;20450;-87
2022/08/08 04:37:28;;;;;;;11.47;8.60;;;;;;;27.51;57.71;95024.69;5034016;28;20466;-87
2022/08/08 04:39:55;;;;;;;9.67;8.77;;;;;;;27.55;57.88;95027.75;5033769;28;20946;-87
2022/08/08 04:42:22;;;;;;;11.53;9.43;;;;;;;27.64;57.22;95024.50;5033911;28;20438;-87
2022/08/08 04:44:49;;;;;;;10.50;9.20;;;;;;;27.58;57.85;95025.41;5033827;28;20497;-87
2022/08/08 04:47:17;;;;;;;9.50;8.60;;;;;;;27.72;56.77;95034.94;5033671;28;20771;-86
2022/08/08 04:49:44;;;;;;;10.13;9.10;;;;;;;27.80;56.85;95027.56;5034020;28;20454;-87
2022/08/08 04:52:12;;;;;;;12.70;8.93;;;;;;;27.96;55.97;95035.78;5033791;28;20443;-87
2022/08/08 04:54:38;;;;;;;9.40;8.50;;;;;;;28.18;56.20;95033.31;5033202;28;20830;-88
2022/08/08 04:57:05;;;;;;;8.87;7.97;;;;;;;28.45;54.68;95036.38;5033465;28;20466;-88
2022/08/08 04:59:32;;;;;;;9.90;9.07;;;;;;;28.67;54.54;95029.28;5032655;28;20501;-87
2022/08/08 05:01:59;;;;;;;10.03;9.03;;;;;;;28.93;53.42;95030.63;5033341;28;20852;-86
2022/08/08 05:04:27;;;;;;;10.90;8.50;;;;;;;29.26;53.01;95042.59;5046626;28;20912;-87
2022/08/08 05:06:54;;;;;;;9.53;8.60;;;;;;;29.46;55.19;95044.84;5040574;28;20858;-86
2022/08/08 05:09:21;;;;;;;9.50;8.70;;;;;;;29.54;53.43;95039.91;5075312;28;20444;-88
2022/08/08 05:11:48;;;;;;;9.50;8.70;;;;;;;29.44;51.47;95047.81;5075543;28;20460;-87
2022/08/08 05:14:15;;;;;;;12.40;8.13;;;;;;;29.41;52.67;95045.56;5075551;28;20453;-87
2022/08/08 05:16:42;;;;;;;9.40;8.63;;;;;;;29.30;52.13;95049.97;5075451;28;20455;-88
2022/08/08 05:19:11;;;;;;;9.60;8.13;;;;;;;29.29;53.74;95058.34;5074996;28;20436;-87
2022/08/08 05:21:43;;;;;;;10.40;9.07;;;;;;;29.58;54.83;95056.44;5064953;28;20466;-88
2022/08/08 05:24:11;;;;;;;11.83;10.37;;;;;;;29.73;54.00;95047.75;5054566;28;20516;-85
2022/08/08 05:26:40;;;;;;;12.80;10.03;;;;;;;29.80;53.60;95049.25;5054881;28;20483;-89
2022/08/08 05:29:07;;;;;;;12.40;9.80;;;;;;;29.97;53.33;95051.13;5055224;28;20545;-87
2022/08/08 05:31:34;;;;;;;11.93;9.20;;;;;;;30.05;52.42;95058.84;5054936;28;20503;-88
2022/08/08 05:34:01;;;;;;;14.67;11.00;;;;;;;29.91;53.08;95058.34;5054280;28;20457;-88
2022/08/08 05:36:30;;;;;;;12.13;10.40;;;;;;;29.89;54.55;95052.38;5054474;28;20828;-88
2022/08/08 05:39:22;;;;;;;13.13;10.80;;;;;;;29.83;52.26;95053.34;4974367;28;20512;-88
2022/08/08 05:41:50;;;;;;;11.70;9.90;;;;;;;29.98;53.17;95053.59;4973238;28;20823;-79
2022/08/08 05:44:24;;;;;;;11.33;9.90;;;;;;;30.17;53.28;95052.28;4972378;28;20975;-79
2022/08/08 05:46:53;;;;;;;14.03;11.10;;;;;;;30.37;50.99;95056.38;4958113;28;20461;-79
2022/08/08 05:49:20;;;;;;;15.07;10.33;;;;;;;30.41;51.12;95065.63;4964898;28;20460;-79
2022/08/08 05:51:48;;;;;;;15.57;12.03;;;;;;;30.41;50.87;95052.91;4971061;28;20457;-79
2022/08/08 05:54:15;;;;;;;14.33;11.07;;;;;;;30.51;50.85;95054.94;4972449;28;20441;-78
2022/08/08 05:56:44;;;;;;;14.50;10.47;;;;;;;30.57;50.22;95064.75;4972902;28;20449;-77
2022/08/08 05:59:16;;;;;;;11.83;10.63;;;;;;;30.61;50.72;95063.22;4954641;28;20448;-77
2022/08/08 06:01:43;;;;;;;18.97;10.90;;;;;;;30.73;50.13;95057.69;4961098;28;20505;-77
2022/08/08 06:04:11;;;;;;;11.93;10.73;;;;;;;30.80;49.54;95058.31;5025326;28;20441;-77
2022/08/08 06:06:40;;;;;;;18.80;11.90;;;;;;;30.92;49.82;95056.28;5052499;28;20446;-78
2022/08/08 06:09:09;;;;;;;15.73;10.67;;;;;;;30.98;48.95;95062.63;5070267;28;20966;-77
2022/08/08 06:11:36;;;;;;;12.50;11.20;;;;;;;30.92;49.38;95064.44;5072879;28;20443;-77
2022/08/08 06:14:06;;;;;;;11.20;10.10;;;;;;;30.93;48.97;95062.53;5037359;28;20780;-77
2022/08/08 06:16:35;;;;;;;11.70;10.40;;;;;;;30.98;49.23;95062.63;5072412;28;20958;-77
2022/08/08 06:19:02;;;;;;;12.83;11.13;;;;;;;31.13;50.04;95060.06;5072951;28;20459;-78
2022/08/08 06:21:30;;;;;;;11.60;10.43;;;;;;;31.11;49.03;95068.47;5072114;28;20488;-77
2022/08/08 06:23:57;;;;;;;12.93;11.43;;;;;;;30.90;50.38;95071.16;5071759;28;20455;-77
2022/08/08 06:26:25;;;;;;;15.97;11.07;;;;;;;30.79;50.48;95065.63;5072145;28;20440;-76
2022/08/08 06:28:53;;;;;;;12.17;11.00;;;;;;;30.85;50.68;95065.69;5072298;28;20449;-77
2022/08/08 06:31:23;;;;;;;12.10;10.90;;;;;;;30.88;51.12;95071.44;5072019;28;20459;-78
2022/08/08 06:33:55;;;;;;;12.73;11.33;;;;;;;30.83;50.65;95061.34;5073106;28;20444;-78
2022/08/08 06:36:31;;;;;;;16.10;11.80;;;;;;;30.98;49.96;95070.75;5071928;28;20449;-78
2022/08/08 06:39:00;;;;;;;14.50;11.57;;;;;;;31.01;51.27;95071.06;5071985;28;20437;-77
2022/08/08 06:41:27;;;;;;;13.77;10.80;;;;;;;31.08;51.33;95074.41;5004616;28;20571;-78
2022/08/08 06:43:58;;;;;;;17.20;12.53;;;;;;;31.10;49.59;95074.13;5071744;28;20441;-77
2022/08/08 06:46:26;;;;;;;12.67;11.40;;;;;;;31.19;49.29;95077.25;5071742;28;20821;-79
2022/08/08 06:48:53;;;;;;;16.47;12.50;;;;;;;31.06;48.89;95071.13;5071817;28;20461;-78
2022/08/08 06:51:21;;;;;;;14.63;12.37;;;;;;;31.01;48.25;95075.66;5036738;28;20445;-77
2022/08/08 06:53:48;;;;;;;13.47;10.50;;;;;;;31.07;49.33;95077.34;5071854;28;20452;-78
2022/08/08 06:56:15;;;;;;;11.87;10.80;;;;;;;30.98;48.34;95076.19;5072299;28;20441;-77
2022/08/08 06:58:42;;;;;;;12.37;10.70;;;;;;;30.92;49.15;95077.97;5071845;28;20930;-77
2022/08/08 07:01:12;;;;;;;12.23;10.40;;;;;;;31.14;50.66;95075.25;5072777;28;20593;-77
2022/08/08 07:03:51;;;;;;;13.53;10.80;;;;;;;31.24;47.80;95080.84;5072541;28;20455;-78
2022/08/08 07:06:24;;;;;;;10.80;9.73;;;;;;;31.32;48.17;95066.00;5051822;28;20807;-76
2022/08/08 07:08:55;;;;;;;11.57;10.47;;;;;;;31.62;47.77;95076.34;5051603;28;20433;-77
2022/08/08 07:11:28;;;;;;;11.90;10.40;;;;;;;31.50;46.52;95083.81;5051617;28;20495;-78
2022/08/08 07:14:01;;;;;;;10.30;8.57;;;;;;;31.49;46.99;95074.03;5051654;28;20449;-78
2022/08/08 07:16:41;;;;;;;9.10;8.30;;;;;;;31.57;44.72;95070.88;5051887;28;20921;-78
2022/08/08 07:19:15;;;;;;;10.27;8.17;;;;;;;31.77;45.24;95070.25;5052267;28;20453;-77
2022/08/08 07:21:49;;;;;;;8.93;7.77;;;;;;;31.97;44.11;95079.41;5052961;28;20481;-77
2022/08/08 07:24:23;;;;;;;8.80;7.87;;;;;;;32.07;41.04;95077.84;5052786;28;20786;-77
2022/08/08 07:26:53;;;;;;;14.60;7.93;;;;;;;32.00;42.78;95078.88;5053118;28;20452;-77
2022/08/08 07:29:22;;;;;;;8.27;7.57;;;;;;;32.14;43.66;95079.28;5053209;28;20441;-77
2022/08/08 07:31:50;;;;;;;11.07;7.73;;;;;;;32.25;42.02;95075.59;5052998;28;20437;-77
2022/08/08 07:34:18;;;;;;;8.17;7.37;;;;;;;32.31;42.58;95079.16;5056920;28;20437;-77
2022/08/08 07:36:48;;;;;;;13.73;7.20;;;;;;;32.30;41.63;95074.78;5073232;28;20443;-76
2022/08/08 07:39:17;;;;;;;11.03;8.70;;;;;;;32.48;42.72;95074.38;5072940;28;20455;-78
2022/08/08 07:41:47;;;;;;;9.53;8.50;;;;;;;32.50;42.01;95068.69;5032836;28;20488;-79
2022/08/08 07:44:17;;;;;;;9.73;8.77;;;;;;;32.69;41.83;95075.31;5071657;28;20912;-77
2022/08/08 07:46:44;;;;;;;7.77;7.07;;;;;;;32.67;40.73;95072.03;5072193;28;20471;-79
2022/08/08 07:49:12;;;;;;;9.13;7.77;;;;;;;32.23;40.99;95071.47;5075333;28;21497;-79
2022/08/08 07:51:41;;;;;;;8.70;7.70;;;;;;;32.08;41.54;95069.44;5073146;28;20461;-78
2022/08/08 07:54:20;;;;;;;10.70;6.90;;;;;;;32.17;41.40;95065.19;5070617;28;20448;-79
2022/08/08 07:56:58;;;;;;;7.03;6.30;;;;;;;32.17;40.92;95064.38;5072289;28;20530;-78
2022/08/08 07:59:30;;;;;;;7.07;6.47;;;;;;;32.10;42.32;95066.50;5077059;28;20506;-78
2022/08/08 08:02:00;;;;;;;10.20;7.07;;;;;;;32.15;41.76;95063.81;5065636;28;20531;-77
2022/08/08 08:04:32;;;;;;;8.60;6.97;;;;;;;32.26;41.64;95062.81;5055025;28;20434;-78
2022/08/08 08:07:01;;;;;;;6.63;6.00;;;;;;;32.48;40.90;95060.78;5036929;28;20430;-78
2022/08/08 08:09:36;;;;;;;8.73;6.17;;;;;;;32.58;42.05;95057.31;5054950;28;20461;-78
2022/08/08 08:12:04;;;;;;;5.83;5.00;;;;;;;31.98;37.29;95053.91;5054760;28;20437;-78
2022/08/08 08:14:46;;;;;;;7.57;6.10;;;;;;;32.08;40.23;95055.03;5036118;28;20937;-77
2022/08/08 08:17:17;;;;;;;9.63;6.23;;;;;;;32.14;40.41;95052.13;5052408;28;20837;-76
2022/08/08 08:19:48;;;;;;;13.27;6.67;;;;;;;32.15;41.02;95053.75;5054706;28;20469;-78
2022/08/08 08:22:17;;;;;;;10.03;6.27;;;;;;;32.02;41.23;95055.00;5052467;28;20909;-77
2022/08/08 08:24:44;;;;;;;8.27;5.53;;;;;;;31.99;39.56;95052.81;5054446;28;20808;-77
2022/08/08 08:27:11;;;;;;;6.60;6.00;;;;;;;31.87;39.50;95045.94;5073512;28;20445;-78
2022/08/08 08:29:38;;;;;;;10.83;5.90;;;;;;;31.86;39.31;95050.56;5074818;28;20448;-79
2022/08/08 08:32:05;;;;;;;7.37;6.43;;;;;;;31.80;39.53;95046.13;5074789;28;20445;-77
2022/08/08 08:34:32;;;;;;;9.60;6.20;;;;;;;31.93;40.77;95036.75;5039112;28;20459;-77
2022/08/08 08:36:59;;;;;;;7.40;6.70;;;;;;;32.08;40.20;95049.59;5074461;28;20448;-77
2022/08/08 08:39:28;;;;;;;8.70;6.67;;;;;;;32.25;40.63;95039.44;5056582;28;20960;-78
2022/08/08 08:41:55;;;;;;;7.00;6.40;;;;;;;32.38;40.36;95038.16;5035494;28;20492;-78
2022/08/08 08:44:24;;;;;;;8.60;6.67;;;;;;;31.85;39.44;95035.34;5054658;28;20801;-78
2022/08/08 08:46:52;;;;;;;7.13;6.53;;;;;;;31.91;41.43;95042.44;5054226;28;20955;-78
2022/08/08 08:49:18;;;;;;;6.43;5.93;;;;;;;31.44;41.08;95025.97;5054054;28;20445;-76
2022/08/08 08:51:49;;;;;;;9.63;7.00;;;;;;;31.53;41.71;95029.06;5051918;28;20994;-79
2022/08/08 08:54:18;;;;;;;9.97;5.93;;;;;;;31.47;39.62;95032.78;5071698;28;20453;-81
2022/08/08 08:56:48;;;;;;;6.27;5.67;;;;;;;31.66;39.42;95028.63;5075466;28;20460;-81
2022/08/08 08:59:16;;;;;;;6.43;5.83;;;;;;;31.92;39.66;95027.78;5075071;28;20449;-79
2022/08/08 09:01:44;;;;;;;6.63;6.03;;;;;;;31.57;41.24;95024.75;5074611;28;20847;-80
2022/08/08 09:04:19;;;;;;;5.90;5.40;;;;;;;31.33;40.64;95016.94;5075367;28;20464;-82
2022/08/08 09:06:48;;;;;;;6.30;5.30;;;;;;;30.96;39.73;95013.28;5056186;28;20475;-81
2022/08/08 09:09:19;;;;;;;7.30;5.87;;;;;;;30.98;41.20;95016.53;5074977;28;20444;-81
2022/08/08 09:11:48;;;;;;;18.50;13.00;;;;;;;30.68;40.34;95020.53;5074973;28;20494;-81
2022/08/08 09:14:21;;;;;;;67.77;30.87;;;;;;;30.11;40.90;95015.41;5074978;28;20437;-80
2022/08/08 09:16:49;;;;;;;149.87;93.83;;;;;;;30.12;43.18;95017.03;5075338;28;20448;-81
2022/08/08 09:19:17;;;;;;;11.83;8.63;;;;;;;30.12;42.16;95014.31;5075070;28;20449;-80
2022/08/08 09:21:45;;;;;;;20.43;13.70;;;;;;;30.31;41.35;95003.19;5074982;28;21003;-81
2022/08/08 09:24:12;;;;;;;67.03;33.80;;;;;;;30.27;42.73;95002.88;5074618;28;20449;-80
2022/08/08 09:26:45;;;;;;;49.33;27.33;;;;;;;30.29;41.83;95010.75;5075024;28;20448;-85
2022/08/08 09:29:21;;;;;;;18.73;12.90;;;;;;;30.30;42.29;94998.84;5074624;28;20792;-83
2022/08/08 09:31:53;;;;;;;9.60;7.30;;;;;;;30.14;40.53;94995.13;5074849;28;20445;-85
2022/08/08 09:34:21;;;;;;;10.47;5.47;;;;;;;30.15;41.41;94994.88;5007165;28;20443;-84
2022/08/08 09:36:48;;;;;;;9.13;6.43;;;;;;;30.25;42.59;94990.66;5074565;28;20433;-84
2022/08/08 09:39:21;;;;;;;6.73;6.10;;;;;;;30.45;42.02;94989.06;5052478;28;20445;-82
2022/08/08 09:42:00;;;;;;;8.00;5.50;;;;;;;30.83;40.95;94990.88;5061708;28;20474;-86
2022/08/08 09:44:49;;;;;;;13.67;8.20;;;;;;;31.07;41.61;94983.28;5054571;28;20857;-82
2022/08/08 09:47:19;;;;;;;5.67;5.10;;;;;;;31.31;38.09;94981.13;5018725;28;20441;-81
2022/08/08 09:49:48;;;;;;;6.23;5.03;;;;;;;31.30;38.13;94982.19;5053101;28;20459;-82
2022/08/08 09:52:22;;;;;;;6.97;5.60;;;;;;;31.51;37.23;94958.75;5039156;28;20449;-81
2022/08/08 09:54:50;;;;;;;7.80;5.03;;;;;;;31.35;35.99;94970.56;5061564;28;20433;-82
2022/08/08 09:57:23;;;;;;;11.00;5.57;;;;;;;31.54;38.22;94957.44;5072032;28;20449;-82
2022/08/08 09:59:52;;;;;;;8.43;5.40;;;;;;;31.41;37.02;94955.97;5072288;28;20484;-81
2022/08/08 10:02:23;;;;;;;5.07;4.67;;;;;;;31.18;37.21;94959.81;5046070;28;20852;-82
2022/08/08 10:04:51;;;;;;;5.27;4.70;;;;;;;31.11;38.31;94959.19;5067064;28;20514;-80
2022/08/08 10:07:18;;;;;;;5.83;4.80;;;;;;;31.10;38.92;94952.13;5054850;28;20460;-82
2022/08/08 10:09:51;;;;;;;5.97;4.53;;;;;;;30.97;36.51;94942.53;5053469;28;20449;-80
2022/08/08 10:12:18;;;;;;;8.47;5.83;;;;;;;30.83;37.94;94949.41;5054160;28;20450;-82
2022/08/08 10:14:44;;;;;;;10.60;4.17;;;;;;;30.87;36.86;94939.69;5053945;28;20449;-81
2022/08/08 10:17:13;;;;;;;7.50;4.70;;;;;;;31.08;38.66;94943.44;5035200;28;20442;-82
2022/08/08 10:19:41;;;;;;;6.67;4.90;;;;;;;31.16;35.61;94920.47;5052986;28;20470;-81
2022/08/08 10:22:09;;;;;;;5.10;4.60;;;;;;;31.21;35.68;94940.34;5052456;28;20482;-82
2022/08/08 10:24:46;;;;;;;5.10;4.33;;;;;;;31.29;35.57;94931.75;5052299;28;20952;-81
2022/08/08 10:27:14;;;;;;;8.10;4.20;;;;;;;31.04;34.47;94928.78;5052087;28;20449;-82
2022/08/08 10:29:53;;;;;;;7.00;4.23;;;;;;;30.79;33.78;94922.00;5033405;28;20789;-81
2022/08/08 10:32:35;;;;;;;4.17;3.87;;;;;;;30.66;35.67;94925.13;5052415;28;20477;-82
2022/08/08 10:35:07;;;;;;;14.13;5.60;;;;;;;30.62;37.12;94924.00;5051878;28;20478;-81
2022/08/08 10:37:35;;;;;;;4.47;3.70;;;;;;;30.41;37.11;94919.41;5051918;28;20889;-81
2022/08/08 10:40:13;;;;;;;3.83;3.47;;;;;;;30.30;35.62;94914.91;5052312;28;20446;-81
2022/08/08 10:42:42;;;;;;;4.60;3.57;;;;;;;30.34;36.42;94929.56;5032957;28;20527;-80
2022/08/08 10:45:10;;;;;;;8.97;3.77;;;;;;;30.00;35.59;94918.84;5052000;28;20924;-81
2022/08/08 10:47:39;;;;;;;7.30;3.83;;;;;;;30.13;36.17;94915.81;5051992;28;20453;-81
2022/08/08 10:50:08;;;;;;;5.30;3.93;;;;;;;30.38;37.13;94915.31;5051710;28;20464;-82
2022/08/08 10:52:37;;;;;;;3.57;3.20;;;;;;;30.34;34.78;94906.03;5051721;28;20829;-81
2022/08/08 10:55:07;;;;;;;4.57;3.77;;;;;;;30.35;35.28;94904.13;5051569;28;20450;-81
2022/08/08 10:57:38;;;;;;;6.83;3.63;;;;;;;30.39;34.66;94902.59;5051892;28;20865;-81
2022/08/08 11:00:08;;;;;;;10.20;3.90;;;;;;;30.57;35.90;94901.41;5051645;28;20967;-82
2022/08/08 11:02:35;;;;;;;5.37;4.00;;;;;;;30.67;34.89;94907.00;5066270;28;20994;-81
2022/08/08 11:05:07;;;;;;;4.10;3.70;;;;;;;30.88;34.02;94903.41;5051872;28;20469;-81
2022/08/08 11:07:36;;;;;;;6.53;3.87;;;;;;;31.02;35.02;94899.22;5051871;28;20437;-82
2022/08/08 11:10:05;;;;;;;3.60;3.30;;;;;;;30.96;31.34;94883.16;5051634;28;20446;-82
2022/08/08 11:12:33;;;;;;;5.50;3.27;;;;;;;31.12;32.21;94895.75;5051595;28;20442;-81
2022/08/08 11:15:00;;;;;;;4.67;4.00;;;;;;;30.65;35.25;94899.13;5051926;28;20454;-81
2022/08/08 11:17:29;;;;;;;12.40;4.40;;;;;;;30.76;35.59;94892.72;5051501;28;20457;-81
2022/08/08 11:19:56;;;;;;;4.63;4.23;;;;;;;30.80;36.69;94893.84;5051869;28;20441;-83
2022/08/08 11:22:29;;;;;;;7.90;3.20;;;;;;;30.53;35.11;94884.84;5053734;28;20473;-82
2022/08/08 11:25:01;;;;;;;5.93;4.13;;;;;;;30.42;34.65;94900.19;5055795;28;20473;-81
2022/08/08 11:27:31;;;;;;;8.13;4.07;;;;;;;30.23;35.10;94893.44;5055538;28;20488;-81
2022/08/08 11:30:00;;;;;;;5.20;3.43;;;;;;;30.23;34.89;94889.91;5055257;28;20538;-81
2022/08/08 11:32:30;;;;;;;5.87;3.63;;;;;;;30.20;37.23;94888.53;5055556;28;20492;-84
2022/08/08 11:35:03;;;;;;;6.03;4.53;;;;;;;30.24;37.40;94886.97;5055627;28;20473;-81
2022/08/08 11:37:32;;;;;;;5.23;4.80;;;;;;;30.15;37.48;94889.31;5055247;28;20925;-81
2022/08/08 11:40:03;;;;;;;5.13;4.73;;;;;;;30.06;37.17;94890.78;5036473;28;20453;-79
2022/08/08 11:42:31;;;;;;;8.10;4.43;;;;;;;29.99;37.08;94878.50;5055041;28;20581;-81
2022/08/08 11:44:58;;;;;;;4.47;4.07;;;;;;;30.05;38.08;94881.03;5055569;28;20430;-82
2022/08/08 11:47:27;;;;;;;5.17;4.77;;;;;;;30.26;37.18;94887.53;5019684;28;20442;-82
2022/08/08 11:49:57;;;;;;;6.07;4.50;;;;;;;30.39;37.27;94873.63;5055583;28;20847;-81
2022/08/08 11:52:25;;;;;;;11.33;4.63;;;;;;;30.37;38.12;94866.81;5054986;28;20469;-81
2022/08/08 11:54:53;;;;;;;5.03;4.33;;;;;;;30.23;37.35;94876.38;5055249;28;20536;-81
2022/08/08 11:57:22;;;;;;;6.57;4.40;;;;;;;30.02;37.06;94867.16;5054923;28;20441;-80
2022/08/08 11:59:55;;;;;;;5.83;5.20;;;;;;;30.08;37.75;94869.72;5055035;28;20473;-81
2022/08/08 12:02:25;;;;;;;6.93;4.57;;;;;;;29.91;37.30;94871.63;5055150;28;20496;-81
2022/08/08 12:05:06;;;;;;;9.00;4.23;;;;;;;29.82;36.89;94867.72;5055423;28;20441;-80
2022/08/08 12:07:44;;;;;;;13.83;4.57;;;;;;;30.01;38.14;94876.34;5070424;28;20445;-80
2022/08/08 12:10:15;;;;;;;7.00;4.90;;;;;;;30.16;37.75;94872.00;5037619;28;20434;-83
2022/08/08 12:12:43;;;;;;;3.77;3.47;;;;;;;30.23;37.65;94862.84;5054135;28;20449;-81
2022/08/08 12:15:11;;;;;;;12.03;5.17;;;;;;;30.27;37.72;94858.56;5056365;28;20441;-79